createdAt,value
2023-02-14T00:03:17.600Z,6.31
2023-02-14T00:08:18.967Z,6.14
2023-02-14T00:13:20.345Z,6.13
2023-02-14T00:18:21.678Z,6.11
2023-02-14T00:23:23.051Z,6.10
2023-02-14T00:28:24.433Z,6.01
2023-02-14T00:33:25.747Z,6.00
2023-02-14T00:38:27.052Z,5.90
2023-02-14T00:43:28.440Z,5.82
2023-02-14T00:48:29.831Z,5.73
2023-02-14T00:53:31.274Z,5.78
2023-02-14T00:58:32.759Z,5.76
2023-02-14T01:03:35.008Z,5.69
2023-02-14T01:08:36.344Z,5.65
2023-02-14T01:13:38.027Z,5.58
2023-02-14T01:18:40.639Z,5.57
2023-02-14T01:29:03.393Z,5.51
2023-02-14T01:50:13.604Z,5.44
2023-02-14T01:55:22.063Z,5.44
2023-02-14T02:00:42.676Z,5.34
2023-02-14T02:05:48.768Z,5.33
2023-02-14T02:10:50.168Z,5.19
2023-02-14T02:15:54.809Z,5.24
2023-02-14T02:21:15.685Z,5.27
2023-02-14T02:26:32.058Z,5.20
2023-02-14T02:32:04.062Z,5.08
2023-02-14T02:37:26.714Z,4.99
2023-02-14T02:42:45.355Z,4.96
2023-02-14T02:48:10.622Z,4.93
2023-02-14T02:53:29.135Z,4.88
2023-02-14T02:58:38.994Z,4.89
2023-02-14T03:04:02.833Z,4.82
2023-02-14T03:09:29.988Z,4.79
2023-02-14T03:14:41.381Z,4.65
2023-02-14T03:20:10.637Z,4.67
2023-02-14T03:25:28.234Z,4.51
2023-02-14T03:30:42.006Z,4.47
2023-02-14T03:35:54.716Z,4.35
2023-02-14T03:41:01.536Z,4.31
2023-02-14T03:46:17.934Z,4.25
2023-02-14T03:51:22.362Z,4.20
2023-02-14T03:56:36.314Z,4.00
2023-02-14T04:01:47.005Z,4.02
2023-02-14T04:06:48.497Z,4.01
2023-02-14T04:11:50.497Z,3.91
2023-02-14T04:17:10.370Z,3.92
2023-02-14T04:22:12.026Z,3.90
2023-02-14T04:27:13.499Z,3.80
2023-02-14T04:32:20.538Z,3.81
2023-02-14T04:37:21.984Z,3.65
2023-02-14T04:42:23.340Z,3.66
2023-02-14T04:47:25.039Z,3.70
2023-02-14T04:52:26.616Z,3.52
2023-02-14T04:57:28.075Z,3.64
2023-02-14T05:02:29.364Z,3.61
2023-02-14T05:07:30.734Z,3.58
2023-02-14T05:12:32.374Z,3.63
2023-02-14T05:17:33.670Z,3.60
2023-02-14T05:22:35.070Z,3.62
2023-02-14T05:27:36.477Z,3.60
2023-02-14T05:32:37.862Z,3.63
2023-02-14T05:37:39.260Z,3.68
2023-02-14T05:42:40.586Z,3.71
2023-02-14T05:47:41.941Z,3.68
2023-02-14T05:52:43.632Z,3.67
2023-02-14T05:57:45.003Z,3.57
2023-02-14T06:02:46.348Z,3.76
2023-02-14T06:07:50.851Z,3.80
2023-02-14T06:12:53.857Z,3.64
2023-02-14T06:17:56.820Z,3.78
2023-02-14T06:22:58.538Z,3.93
2023-02-14T06:27:59.945Z,3.87
2023-02-14T06:33:01.332Z,3.89
2023-02-14T06:38:02.816Z,3.93
2023-02-14T06:43:04.592Z,3.61
2023-02-14T06:48:06.070Z,3.80
2023-02-14T06:53:07.397Z,3.81
2023-02-14T06:58:08.850Z,3.76
2023-02-14T07:03:10.296Z,3.93
2023-02-14T07:08:11.671Z,4.02
2023-02-14T07:13:13.343Z,3.91
2023-02-14T07:18:14.716Z,4.05
2023-02-14T07:23:16.097Z,3.97
2023-02-14T07:28:17.532Z,3.94
2023-02-14T07:33:19.222Z,4.00
2023-02-14T07:38:20.580Z,4.05
2023-02-14T07:43:21.877Z,4.09
2023-02-14T07:48:23.359Z,3.92
2023-02-14T07:53:24.921Z,4.06
2023-02-14T07:58:26.813Z,4.06
2023-02-14T08:03:28.194Z,3.77
2023-02-14T08:08:31.618Z,3.85
2023-02-14T08:13:32.947Z,3.79
2023-02-14T08:18:39.929Z,3.93
2023-02-14T08:23:41.297Z,3.94
2023-02-14T08:28:43.136Z,3.96
2023-02-14T08:33:45.425Z,4.05
2023-02-14T08:38:50.120Z,4.02
2023-02-14T08:43:51.920Z,4.11
2023-02-14T08:48:54.339Z,4.10
2023-02-14T08:53:56.097Z,4.09
2023-02-14T08:58:57.442Z,4.22
2023-02-14T09:03:59.065Z,4.10
2023-02-14T09:09:02.485Z,3.94
2023-02-14T09:14:04.020Z,3.79
2023-02-14T09:19:05.653Z,3.87
2023-02-14T09:24:07.215Z,3.87
2023-02-14T09:29:08.643Z,4.12
2023-02-14T09:34:28.622Z,4.16
2023-02-14T09:39:29.990Z,4.34
2023-02-14T09:45:10.724Z,3.98
2023-02-14T09:50:36.442Z,3.75
2023-02-14T09:55:53.930Z,3.87
2023-02-14T10:01:02.573Z,4.20
2023-02-14T10:06:21.080Z,4.26
2023-02-14T10:11:24.808Z,4.23
2023-02-14T10:16:32.559Z,4.39
2023-02-14T10:21:45.938Z,4.18
2023-02-14T10:26:50.790Z,4.44
2023-02-14T10:32:00.339Z,4.65
2023-02-14T10:37:37.404Z,4.84
2023-02-14T10:42:57.517Z,4.82
2023-02-14T10:48:22.434Z,4.89
2023-02-14T10:53:45.126Z,4.88
2023-02-14T10:58:50.364Z,4.94
2023-02-14T11:03:58.452Z,5.05
2023-02-14T11:08:59.914Z,5.10
2023-02-14T11:14:23.660Z,5.18
2023-02-14T11:19:37.266Z,5.11
2023-02-14T11:24:41.979Z,5.28
2023-02-14T11:29:45.330Z,5.18
2023-02-14T11:35:20.006Z,5.39
2023-02-14T11:40:33.070Z,5.57
2023-02-14T11:45:37.554Z,5.56
2023-02-14T11:50:39.190Z,5.78
2023-02-14T11:55:41.080Z,5.76
2023-02-14T12:00:52.029Z,5.83
2023-02-14T12:06:00.326Z,5.87
2023-02-14T12:11:18.259Z,5.74
2023-02-14T12:16:28.291Z,5.87
2023-02-14T12:21:59.414Z,5.90
2023-02-14T12:27:09.985Z,6.07
2023-02-14T12:32:26.933Z,5.94
2023-02-14T12:37:42.605Z,6.15
2023-02-14T12:43:09.354Z,6.28
2023-02-14T12:48:30.240Z,6.28
2023-02-14T12:53:37.519Z,6.52
2023-02-14T12:59:07.786Z,6.50
2023-02-14T13:04:38.956Z,6.48
2023-02-14T13:10:00.176Z,6.62
2023-02-14T13:15:10.824Z,6.59
2023-02-14T13:20:15.640Z,6.77
2023-02-14T13:25:36.639Z,6.75
2023-02-14T13:30:38.629Z,6.65
2023-02-14T13:35:41.220Z,6.62
2023-02-14T13:40:43.084Z,6.75
2023-02-14T13:45:51.861Z,6.94
2023-02-14T13:51:05.606Z,7.19
2023-02-14T13:56:13.323Z,7.96
2023-02-14T14:01:39.703Z,9.06
2023-02-14T14:07:02.536Z,8.97
2023-02-14T14:12:03.928Z,10.66
2023-02-14T14:17:19.581Z,12.13
2023-02-14T14:22:22.178Z,16.86
2023-02-14T14:27:31.889Z,19.74
2023-02-14T14:32:38.756Z,20.83
2023-02-14T14:37:49.240Z,21.68
2023-02-14T14:42:51.342Z,21.79
2023-02-14T14:47:57.772Z,22.18
2023-02-14T14:53:03.079Z,22.01
2023-02-14T14:58:08.933Z,22.44
2023-02-14T15:03:17.186Z,22.23
2023-02-14T15:08:36.572Z,21.85
2023-02-14T15:13:50.809Z,20.20
2023-02-14T15:18:59.450Z,17.92
2023-02-14T15:24:02.941Z,16.42
2023-02-14T15:29:07.441Z,13.11
2023-02-14T15:34:10.277Z,11.46
2023-02-14T15:39:15.568Z,10.35
2023-02-14T15:44:23.325Z,9.76
2023-02-14T15:49:33.663Z,9.38
2023-02-14T15:54:43.178Z,9.27
2023-02-14T15:59:44.551Z,8.74
2023-02-14T16:04:46.074Z,8.45
2023-02-14T16:09:48.273Z,8.07
2023-02-14T16:15:02.435Z,7.88
2023-02-14T16:20:34.532Z,7.61
2023-02-14T16:25:35.940Z,7.35
2023-02-14T16:30:38.824Z,7.01
2023-02-14T16:35:40.326Z,6.83
2023-02-14T16:40:44.917Z,6.58
2023-02-14T16:45:47.431Z,6.38
2023-02-14T16:50:49.003Z,6.36
2023-02-14T16:55:53.165Z,6.31
2023-02-14T17:00:54.551Z,6.09
2023-02-14T17:05:58.418Z,5.96
2023-02-14T17:11:02.288Z,5.90
2023-02-14T17:16:07.160Z,5.94
2023-02-14T17:21:09.412Z,5.78
2023-02-14T17:26:11.267Z,5.74
2023-02-14T17:31:13.396Z,5.75
2023-02-14T17:36:15.055Z,5.73
2023-02-14T17:41:22.314Z,5.65
2023-02-14T17:46:23.820Z,5.83
2023-02-14T17:51:25.278Z,5.69
2023-02-14T17:56:26.948Z,5.49
2023-02-14T18:01:32.816Z,5.28
2023-02-14T18:06:34.486Z,5.14
2023-02-14T18:11:39.754Z,5.05
2023-02-14T18:16:42.103Z,5.06
2023-02-14T18:21:45.098Z,5.01
2023-02-14T18:26:46.481Z,4.78
2023-02-14T18:31:47.909Z,4.74
2023-02-14T18:36:49.404Z,4.57
2023-02-14T18:41:50.692Z,4.54
2023-02-14T18:46:52.292Z,4.46
2023-02-14T18:51:54.715Z,4.49
2023-02-14T18:56:56.117Z,4.41
2023-02-14T19:01:57.488Z,4.26
2023-02-14T19:06:59.613Z,4.28
2023-02-14T19:12:01.007Z,4.37
2023-02-14T19:17:04.312Z,4.32
2023-02-14T19:22:06.020Z,4.31
2023-02-14T19:27:07.593Z,4.28
2023-02-14T19:32:08.983Z,4.31
2023-02-14T19:37:10.643Z,4.37
2023-02-14T19:42:12.008Z,4.27
2023-02-14T19:47:27.183Z,4.21
2023-02-14T19:52:32.514Z,4.07
2023-02-14T19:57:34.152Z,4.14
2023-02-14T20:02:38.106Z,4.13
2023-02-14T20:07:39.515Z,4.25
2023-02-14T20:12:41.650Z,4.13
2023-02-14T20:17:43.253Z,4.18
2023-02-14T20:22:47.813Z,4.10
2023-02-14T20:27:53.234Z,4.05
2023-02-14T20:32:54.599Z,4.12
2023-02-14T20:37:56.248Z,4.17
2023-02-14T20:42:58.103Z,4.21
2023-02-14T20:48:04.055Z,4.21
2023-02-14T20:53:05.480Z,4.21
2023-02-14T20:58:06.799Z,4.05
2023-02-14T21:03:08.470Z,4.20
2023-02-14T21:08:10.053Z,4.17
2023-02-14T21:13:11.454Z,4.33
2023-02-14T21:18:13.026Z,4.40
2023-02-14T21:23:14.765Z,4.40
2023-02-14T21:28:16.294Z,4.42
2023-02-14T21:33:18.077Z,4.41
2023-02-14T21:38:19.384Z,4.31
2023-02-14T21:43:20.729Z,4.20
2023-02-14T21:48:41.504Z,4.27
2023-02-14T21:53:43.288Z,4.28
2023-02-14T21:58:44.800Z,4.27
2023-02-14T22:03:46.288Z,4.19
2023-02-14T22:08:53.204Z,4.17
2023-02-14T22:13:59.299Z,4.17
2023-02-14T22:19:00.706Z,4.09
2023-02-14T22:24:02.252Z,4.05
2023-02-14T22:29:04.775Z,4.15
2023-02-14T22:34:08.822Z,3.92
2023-02-14T22:39:13.576Z,3.95
2023-02-14T22:44:15.408Z,3.92
2023-02-14T22:49:17.337Z,3.80
2023-02-14T22:54:18.702Z,3.90
2023-02-14T22:59:24.686Z,3.74
2023-02-14T23:04:29.291Z,3.95
2023-02-14T23:09:30.764Z,3.85
2023-02-14T23:14:50.704Z,3.79
2023-02-14T23:20:10.578Z,3.71
2023-02-14T23:25:12.339Z,3.81
2023-02-14T23:30:16.618Z,3.67
2023-02-14T23:35:18.075Z,3.81
2023-02-14T23:40:20.303Z,3.64
2023-02-14T23:45:37.145Z,3.87
2023-02-14T23:50:38.518Z,3.88
2023-02-14T23:55:39.886Z,3.86
